Time;durP1;ratioP1;P1;durP2;ratioP2;P2;SDS_P1;SDS_P2;PMS_P1;PMS_P2;Temp;Humidity;BMP_temperature;BMP_pressure;BME280_temperature;BME280_humidity;BME280_pressure;Samples;Min_cycle;Max_cycle;Signal;HPM_P1;HPM_P2
2022/06/08 04:01:04;;;;;;;9.55;8.75;;;12.40;99.90;;;;;;5607482;23;20533;-72
2022/06/08 04:03:32;;;;;;;9.70;8.88;;;12.50;99.90;;;;;;4950862;29;20210;-71
2022/06/08 04:06:00;;;;;;;10.43;9.40;;;12.60;99.90;;;;;;4953179;28;20206;-72
2022/06/08 04:08:28;;;;;;;10.73;9.10;;;12.70;99.90;;;;;;4947960;28;20245;-71
2022/06/08 04:10:54;;;;;;;9.60;8.70;;;12.90;99.90;;;;;;4958062;28;20582;-72
2022/06/08 04:13:21;;;;;;;10.55;9.60;;;13.00;99.90;;;;;;4969083;28;20215;-71
2022/06/08 04:15:49;;;;;;;10.80;9.17;;;13.10;99.90;;;;;;4957746;28;20220;-71
2022/06/08 04:18:19;;;;;;;9.70;8.80;;;13.10;99.90;;;;;;4960679;28;20480;-73
2022/06/08 04:20:49;;;;;;;9.33;8.63;;;13.10;99.90;;;;;;4954290;28;20939;-72
2022/06/08 04:23:17;;;;;;;9.37;8.57;;;13.20;99.90;;;;;;4956534;28;20484;-72
2022/06/08 04:25:45;;;;;;;10.40;9.27;;;13.30;99.90;;;;;;4952701;28;20464;-72
2022/06/08 04:28:13;;;;;;;9.63;8.70;;;13.80;99.90;;;;;;4949372;28;20580;-72
2022/06/08 04:30:40;;;;;;;8.80;8.10;;;14.40;99.90;;;;;;4963346;28;20480;-72
2022/06/08 04:33:07;;;;;;;8.60;8.00;;;15.10;99.90;;;;;;4962045;28;20473;-72
2022/06/08 04:35:35;;;;;;;7.97;7.30;;;15.50;99.90;;;;;;4962954;28;20964;-72
2022/06/08 04:38:02;;;;;;;8.07;7.37;;;16.00;99.90;;;;;;4966089;28;20496;-72
2022/06/08 04:40:30;;;;;;;8.03;7.53;;;16.60;99.90;;;;;;4962125;28;21874;-73
2022/06/08 04:42:57;;;;;;;7.97;7.40;;;17.00;99.90;;;;;;4959919;28;20479;-73
2022/06/08 04:45:25;;;;;;;8.37;7.77;;;17.30;99.90;;;;;;4956412;28;20558;-71
2022/06/08 04:47:51;;;;;;;7.73;7.00;;;17.50;99.90;;;;;;4961948;28;20474;-72
2022/06/08 04:50:19;;;;;;;7.90;7.40;;;17.80;99.90;;;;;;4969161;28;20460;-71
2022/06/08 04:52:48;;;;;;;8.60;7.90;;;18.20;99.90;;;;;;4960151;28;20467;-72
2022/06/08 04:55:15;;;;;;;7.17;6.77;;;18.40;99.90;;;;;;4962349;28;20519;-71
2022/06/08 04:57:42;;;;;;;7.63;7.10;;;18.70;99.90;;;;;;4956607;28;20483;-72
2022/06/08 05:00:12;;;;;;;6.70;6.37;;;19.20;99.90;;;;;;4954784;28;20467;-72
2022/06/08 05:02:45;;;;;;;7.40;7.00;;;19.50;99.90;;;;;;4955806;28;20470;-72
2022/06/08 05:05:13;;;;;;;7.27;6.77;;;20.00;99.90;;;;;;4954425;28;20920;-72
2022/06/08 05:07:40;;;;;;;5.97;5.57;;;20.20;99.90;;;;;;4946449;28;20468;-72
2022/06/08 05:10:09;;;;;;;7.33;6.70;;;20.10;99.90;;;;;;4962146;28;20550;-71
2022/06/08 05:12:37;;;;;;;7.70;7.13;;;19.60;99.90;;;;;;4954833;28;20476;-71
2022/06/08 05:15:05;;;;;;;7.40;6.80;;;18.90;99.90;;;;;;4964006;28;20533;-71
2022/06/08 05:17:33;;;;;;;6.93;6.53;;;18.40;99.90;;;;;;4966660;28;20542;-71
2022/06/08 05:19:59;;;;;;;8.00;7.50;;;18.00;99.90;;;;;;4962807;28;20494;-72
2022/06/08 05:22:26;;;;;;;7.73;7.10;;;17.80;99.90;;;;;;4947844;28;20478;-72
2022/06/08 05:24:54;;;;;;;6.87;6.47;;;17.50;99.90;;;;;;4945742;28;20494;-71
2022/06/08 05:27:22;;;;;;;7.17;6.50;;;17.30;99.90;;;;;;4960415;28;20456;-72
2022/06/08 05:29:48;;;;;;;7.23;6.80;;;17.00;99.90;;;;;;4952321;28;20475;-73
2022/06/08 05:32:15;;;;;;;8.87;8.07;;;17.00;99.90;;;;;;4957557;28;20484;-72
2022/06/08 05:34:42;;;;;;;6.70;6.30;;;17.00;99.90;;;;;;4953002;28;20475;-72
2022/06/08 05:37:09;;;;;;;7.07;6.67;;;16.80;99.90;;;;;;4963758;28;20484;-72
2022/06/08 05:39:35;;;;;;;8.10;7.60;;;16.70;99.90;;;;;;4955815;28;20515;-71
2022/06/08 05:42:02;;;;;;;7.10;6.60;;;16.70;99.90;;;;;;4958658;28;20496;-71
2022/06/08 05:44:32;;;;;;;7.60;6.90;;;16.60;99.90;;;;;;4958081;28;20479;-72
2022/06/08 05:46:59;;;;;;;7.27;6.67;;;16.60;99.90;;;;;;4968599;28;20920;-71
2022/06/08 05:49:26;;;;;;;7.43;6.77;;;16.50;99.90;;;;;;4960443;28;20471;-72
2022/06/08 05:51:53;;;;;;;7.10;6.53;;;16.50;99.90;;;;;;4951946;28;20496;-72
2022/06/08 05:54:19;;;;;;;7.20;6.60;;;16.50;99.90;;;;;;4956931;28;20536;-72
2022/06/08 05:56:46;;;;;;;8.77;7.97;;;16.70;99.90;;;;;;4964147;28;20487;-71
2022/06/08 05:59:13;;;;;;;7.90;7.10;;;16.90;99.90;;;;;;4952480;28;20479;-71
2022/06/08 06:01:41;;;;;;;7.47;6.97;;;17.10;99.90;;;;;;4956727;28;21005;-71
2022/06/08 06:04:08;;;;;;;6.20;5.90;;;17.20;99.90;;;;;;4947260;28;20464;-71
2022/06/08 06:06:36;;;;;;;6.43;5.90;;;17.30;99.90;;;;;;4952842;28;21214;-71
2022/06/08 06:09:05;;;;;;;8.33;6.00;;;17.60;99.90;;;;;;4951201;28;20510;-71
2022/06/08 06:11:32;;;;;;;8.37;7.47;;;17.80;99.90;;;;;;4949917;28;20489;-71
2022/06/08 06:13:59;;;;;;;9.70;5.97;;;18.20;99.90;;;;;;4957623;28;20462;-71
2022/06/08 06:16:26;;;;;;;6.63;6.20;;;18.70;99.90;;;;;;4956983;28;20473;-71
2022/06/08 06:18:54;;;;;;;5.87;5.47;;;19.10;99.90;;;;;;4965169;28;20472;-71
2022/06/08 06:21:25;;;;;;;6.33;5.93;;;19.50;99.90;;;;;;4950412;28;20489;-71
2022/06/08 06:23:52;;;;;;;6.00;5.47;;;19.50;99.90;;;;;;4955039;28;20558;-71
2022/06/08 06:26:19;;;;;;;5.87;5.40;;;19.60;99.90;;;;;;4950896;28;20951;-70
2022/06/08 06:28:46;;;;;;;6.20;5.60;;;19.60;99.90;;;;;;4952690;28;20476;-73
2022/06/08 06:31:17;;;;;;;5.67;5.40;;;19.50;99.90;;;;;;4951438;28;20495;-71
2022/06/08 06:33:44;;;;;;;5.67;5.27;;;19.30;99.90;;;;;;4952866;28;20469;-71
2022/06/08 06:36:12;;;;;;;5.87;5.40;;;19.00;99.90;;;;;;4953686;28;20466;-70
2022/06/08 06:38:39;;;;;;;6.20;5.70;;;18.70;99.90;;;;;;4962990;28;20849;-71
2022/06/08 06:41:06;;;;;;;5.87;5.27;;;18.70;99.90;;;;;;4962411;28;20487;-70
2022/06/08 06:43:35;;;;;;;5.23;4.83;;;19.20;99.90;;;;;;4960489;28;20478;-70
2022/06/08 06:46:02;;;;;;;5.40;5.20;;;19.30;99.90;;;;;;4957070;28;20547;-70
2022/06/08 06:48:29;;;;;;;5.27;4.93;;;19.60;99.90;;;;;;4961283;28;20562;-71
2022/06/08 06:50:55;;;;;;;6.20;5.80;;;19.70;99.90;;;;;;4953440;28;20492;-70
2022/06/08 06:53:24;;;;;;;5.77;5.43;;;19.40;99.90;;;;;;4953699;28;20970;-69
2022/06/08 06:55:50;;;;;;;6.53;6.03;;;18.90;99.90;;;;;;4938729;28;20465;-69
2022/06/08 06:58:17;;;;;;;6.23;5.70;;;18.60;99.90;;;;;;4939565;29;20492;-69
2022/06/08 07:00:44;;;;;;;7.37;6.00;;;18.30;99.90;;;;;;4955055;28;20495;-70
2022/06/08 07:03:11;;;;;;;5.83;5.43;;;18.10;99.90;;;;;;4959255;28;20464;-69
2022/06/08 07:05:38;;;;;;;5.53;5.13;;;18.10;99.90;;;;;;4948620;28;20508;-70
2022/06/08 07:08:06;;;;;;;6.63;6.20;;;18.10;99.90;;;;;;4961678;28;20479;-70
2022/06/08 07:10:36;;;;;;;5.80;5.30;;;18.00;99.90;;;;;;4947077;28;20493;-70
2022/06/08 07:13:04;;;;;;;7.03;6.03;;;17.80;99.90;;;;;;4945534;28;20470;-70
2022/06/08 07:15:31;;;;;;;6.30;5.80;;;17.80;99.90;;;;;;4943100;28;20505;-70
2022/06/08 07:17:58;;;;;;;7.47;6.87;;;17.90;99.90;;;;;;4946358;28;20492;-70
2022/06/08 07:20:25;;;;;;;6.87;6.40;;;18.00;99.90;;;;;;4959424;28;20483;-70
2022/06/08 07:22:52;;;;;;;6.00;5.60;;;17.90;99.90;;;;;;4954767;28;20486;-70
2022/06/08 07:25:20;;;;;;;7.83;5.93;;;18.00;99.90;;;;;;4957155;28;20476;-70
2022/06/08 07:27:48;;;;;;;6.10;5.00;;;18.20;99.90;;;;;;4949305;28;20472;-70
2022/06/08 07:30:15;;;;;;;6.23;5.80;;;18.20;99.90;;;;;;4946702;28;20464;-69
2022/06/08 07:32:42;;;;;;;6.40;5.83;;;18.30;99.90;;;;;;4962419;28;20479;-69
2022/06/08 07:35:09;;;;;;;6.57;6.10;;;18.40;99.90;;;;;;4948668;28;20469;-69
2022/06/08 07:37:36;;;;;;;7.00;6.50;;;18.50;99.90;;;;;;4947177;28;20861;-69
2022/06/08 07:40:04;;;;;;;6.43;5.93;;;18.60;99.90;;;;;;4943118;28;20476;-72
2022/06/08 07:42:31;;;;;;;5.90;5.50;;;18.60;99.90;;;;;;4944934;28;20604;-73
2022/06/08 07:44:59;;;;;;;6.50;5.93;;;18.60;99.90;;;;;;4950188;28;20468;-69
2022/06/08 07:47:25;;;;;;;7.20;6.50;;;18.40;99.90;;;;;;4949315;28;20457;-69
2022/06/08 07:49:51;;;;;;;6.63;6.23;;;18.30;99.90;;;;;;4933535;29;20930;-70
2022/06/08 07:52:20;;;;;;;7.70;7.00;;;18.30;99.90;;;;;;4941718;28;20497;-71
2022/06/08 07:54:48;;;;;;;6.60;6.13;;;18.50;99.90;;;;;;4963392;28;20228;-71
2022/06/08 07:57:18;;;;;;;7.50;6.60;;;18.60;99.90;;;;;;4947525;29;20484;-71
2022/06/08 07:59:45;;;;;;;6.83;6.33;;;18.70;99.90;;;;;;4952177;28;20464;-71
2022/06/08 08:02:14;;;;;;;6.30;5.90;;;18.90;99.90;;;;;;4952813;28;20552;-71
2022/06/08 08:04:41;;;;;;;7.00;6.40;;;19.20;99.90;;;;;;4952191;28;20464;-71
2022/06/08 08:07:09;;;;;;;6.93;6.33;;;19.40;99.90;;;;;;4946162;28;20989;-71
2022/06/08 08:09:37;;;;;;;6.50;6.10;;;19.80;99.90;;;;;;4947920;29;20476;-71
2022/06/08 08:12:05;;;;;;;8.00;6.87;;;20.50;99.90;;;;;;4950656;28;20947;-71
2022/06/08 08:14:33;;;;;;;7.50;7.00;;;21.40;99.90;;;;;;4960523;28;20790;-71
2022/06/08 08:17:00;;;;;;;7.57;6.97;;;22.10;99.90;;;;;;4938929;29;20460;-71
2022/06/08 08:19:28;;;;;;;8.90;8.30;;;22.70;99.90;;;;;;4945534;28;21007;-71
2022/06/08 08:21:56;;;;;;;9.63;8.80;;;23.20;99.90;;;;;;4946046;28;20486;-72
2022/06/08 08:24:23;;;;;;;9.87;9.17;;;23.30;99.90;;;;;;4935795;28;20481;-72
2022/06/08 08:26:51;;;;;;;10.03;9.33;;;23.40;99.90;;;;;;4932718;29;20469;-72
2022/06/08 08:29:18;;;;;;;10.13;9.53;;;23.50;99.90;;;;;;4945909;29;20465;-71
2022/06/08 08:31:45;;;;;;;11.13;10.13;;;23.20;99.90;;;;;;4951448;28;20485;-72
2022/06/08 08:34:12;;;;;;;12.47;11.57;;;23.20;99.90;;;;;;4948685;28;20486;-72
2022/06/08 08:36:40;;;;;;;13.27;12.20;;;23.60;99.90;;;;;;4941701;28;20466;-72
2022/06/08 08:39:07;;;;;;;14.53;13.30;;;23.50;99.90;;;;;;4952067;28;20812;-72
2022/06/08 08:44:35;;;;;;;14.43;13.30;;;22.80;99.90;;;;;;4937261;29;20963;-72
2022/06/08 08:47:11;;;;;;;15.40;13.77;;;22.50;99.90;;;;;;4948715;29;20550;-72
2022/06/08 08:49:43;;;;;;;14.87;13.57;;;22.30;99.90;;;;;;4936324;29;20471;-71
2022/06/08 08:52:19;;;;;;;16.47;14.90;;;22.30;99.90;;;;;;4945663;29;20497;-71
2022/06/08 08:54:57;;;;;;;15.60;14.13;;;22.20;99.90;;;;;;4955793;28;20794;-72
2022/06/08 08:57:31;;;;;;;15.80;14.40;;;22.30;99.90;;;;;;4951770;28;20514;-71
2022/06/08 08:59:59;;;;;;;15.07;13.90;;;22.70;99.90;;;;;;4955083;28;20467;-71
2022/06/08 09:05:16;;;;;;;17.97;16.50;;;23.50;99.90;;;;;;4939587;29;20926;-72
2022/06/08 09:07:45;;;;;;;15.87;14.57;;;23.80;99.90;;;;;;4951182;29;20462;-72
2022/06/08 09:10:17;;;;;;;17.53;16.13;;;23.90;99.90;;;;;;4935478;29;20845;-72
2022/06/08 09:12:44;;;;;;;16.33;14.93;;;23.60;99.90;;;;;;4936030;29;20472;-72
2022/06/08 09:15:13;;;;;;;15.50;14.30;;;23.60;99.90;;;;;;4935281;29;20475;-74
2022/06/08 09:17:42;;;;;;;15.73;14.47;;;23.40;99.90;;;;;;4965640;28;20852;-72
2022/06/08 09:20:26;;;;;;;15.60;14.20;;;23.30;99.90;;;;;;4958421;28;20471;-72
2022/06/08 09:22:56;;;;;;;14.33;13.13;;;23.10;99.90;;;;;;4950440;28;20583;-72
2022/06/08 09:25:27;;;;;;;15.97;14.50;;;22.80;99.90;;;;;;4935609;29;20948;-72
2022/06/08 09:27:56;;;;;;;16.10;14.60;;;22.60;99.90;;;;;;4944351;29;20460;-71
2022/06/08 09:30:24;;;;;;;17.50;15.83;;;22.40;99.90;;;;;;4944364;28;20520;-71
2022/06/08 09:32:53;;;;;;;15.40;14.00;;;22.10;99.90;;;;;;4946367;28;20511;-71
2022/06/08 09:35:28;;;;;;;15.43;14.03;;;21.90;99.90;;;;;;4953670;28;20469;-71
2022/06/08 09:37:59;;;;;;;16.13;14.47;;;22.10;99.90;;;;;;4935348;29;20484;-71
2022/06/08 09:40:40;;;;;;;17.67;15.97;;;22.50;99.90;;;;;;4934827;29;20470;-72
2022/06/08 09:43:29;;;;;;;13.80;12.70;;;22.60;99.90;;;;;;4935570;29;20548;-72
2022/06/08 09:46:00;;;;;;;13.43;12.33;;;22.70;99.90;;;;;;4935887;29;20465;-71
2022/06/08 09:51:38;;;;;;;13.40;12.33;;;22.50;99.90;;;;;;4935074;29;20993;-71
2022/06/08 09:54:16;;;;;;;14.70;13.20;;;22.70;99.90;;;;;;4934043;29;20465;-71
2022/06/08 09:56:54;;;;;;;13.07;11.77;;;23.10;99.90;;;;;;4940654;28;20949;-71
2022/06/08 09:59:33;;;;;;;13.10;12.00;;;23.20;99.90;;;;;;4961336;28;20495;-71
2022/06/08 10:02:11;;;;;;;13.10;12.10;;;23.10;99.90;;;;;;4947709;28;20496;-72
2022/06/08 10:04:49;;;;;;;13.57;12.40;;;23.10;99.90;;;;;;4947492;28;20482;-71
2022/06/08 10:07:19;;;;;;;14.70;13.40;;;22.80;99.90;;;;;;4960655;28;20461;-71
2022/06/08 10:10:17;;;;;;;15.37;14.00;;;22.50;99.90;;;;;;4946695;28;20576;-71
2022/06/08 10:12:50;;;;;;;15.00;13.70;;;22.30;99.90;;;;;;4953909;28;20468;-71
2022/06/08 10:15:25;;;;;;;13.27;12.20;;;22.00;99.90;;;;;;4956398;28;20471;-71
2022/06/08 10:17:57;;;;;;;13.30;11.93;;;21.90;99.90;;;;;;4953129;28;20528;-71
2022/06/08 10:20:31;;;;;;;11.90;11.00;;;21.70;99.90;;;;;;4953519;28;20465;-69
2022/06/08 10:23:04;;;;;;;13.37;12.23;;;21.60;99.90;;;;;;4962112;28;20486;-70
2022/06/08 10:25:38;;;;;;;13.50;12.40;;;21.50;99.90;;;;;;4959511;28;21016;-69
2022/06/08 10:28:08;;;;;;;13.17;12.10;;;21.30;99.90;;;;;;4954959;28;20886;-69
2022/06/08 10:30:41;;;;;;;12.90;11.80;;;21.30;99.90;;;;;;4962366;28;20488;-70
2022/06/08 10:33:15;;;;;;;13.23;12.03;;;21.20;99.90;;;;;;4960954;28;20476;-69
2022/06/08 10:35:44;;;;;;;11.93;11.03;;;21.20;99.90;;;;;;4951728;28;20663;-69
2022/06/08 10:38:19;;;;;;;14.33;13.03;;;21.10;99.90;;;;;;4945227;28;20489;-69
2022/06/08 10:40:52;;;;;;;12.30;11.30;;;21.00;99.90;;;;;;4945571;29;20520;-68
2022/06/08 10:43:20;;;;;;;13.70;12.43;;;20.90;99.90;;;;;;4957073;28;20475;-69
2022/06/08 10:45:54;;;;;;;12.60;11.70;;;20.90;99.90;;;;;;4965722;28;20945;-68
2022/06/08 10:48:36;;;;;;;12.90;11.80;;;21.00;99.90;;;;;;4955567;28;20847;-69
2022/06/08 10:51:37;;;;;;;12.77;11.60;;;21.40;99.90;;;;;;4953777;28;20502;-69
2022/06/08 10:57:44;;;;;;;12.73;11.73;;;22.40;99.90;;;;;;4956610;28;20460;-69
2022/06/08 11:00:44;;;;;;;11.30;10.40;;;22.90;99.90;;;;;;4945641;28;20465;-68
2022/06/08 11:03:39;;;;;;;11.20;10.30;;;23.20;99.90;;;;;;4959851;28;20456;-69
2022/06/08 11:06:10;;;;;;;11.60;10.73;;;23.30;99.90;;;;;;4946970;28;20483;-68
2022/06/08 11:08:51;;;;;;;10.07;9.37;;;23.40;99.90;;;;;;4963776;28;20463;-69
2022/06/08 11:11:39;;;;;;;10.97;10.17;;;23.50;99.90;;;;;;4963105;28;20518;-68
2022/06/08 11:14:30;;;;;;;10.90;10.10;;;23.60;99.90;;;;;;4966219;28;21156;-69
2022/06/08 11:17:00;;;;;;;10.90;10.20;;;23.50;99.90;;;;;;4960062;28;20475;-70
2022/06/08 11:19:30;;;;;;;9.30;8.70;;;23.60;99.90;;;;;;4969296;28;20487;-70
2022/06/08 11:21:58;;;;;;;8.30;7.90;;;23.50;99.90;;;;;;4951403;28;20488;-70
2022/06/08 11:24:30;;;;;;;9.17;8.67;;;23.60;99.90;;;;;;4939075;28;20808;-69
2022/06/08 11:27:27;;;;;;;7.40;6.83;;;23.50;99.90;;;;;;4964386;28;20463;-69
2022/06/08 11:29:56;;;;;;;7.90;7.37;;;23.50;99.90;;;;;;4954821;28;20475;-69
2022/06/08 11:32:39;;;;;;;7.50;7.20;;;23.60;99.90;;;;;;4962292;28;20521;-69
2022/06/08 11:35:42;;;;;;;8.30;7.80;;;23.80;99.90;;;;;;4955816;28;20457;-69
2022/06/08 11:38:18;;;;;;;8.13;7.63;;;24.00;99.90;;;;;;4950016;28;20964;-68
2022/06/08 11:40:46;;;;;;;8.40;7.90;;;24.00;99.90;;;;;;4952747;28;20819;-70
2022/06/08 11:43:28;;;;;;;6.33;6.10;;;24.10;99.90;;;;;;4945037;28;20474;-69
2022/06/08 11:45:58;;;;;;;7.30;6.83;;;24.10;99.90;;;;;;4954683;28;20958;-70
2022/06/08 11:48:27;;;;;;;7.70;7.20;;;23.80;99.90;;;;;;4948869;28;20483;-71
2022/06/08 11:50:56;;;;;;;6.90;6.60;;;23.70;99.90;;;;;;4956925;28;20662;-71
2022/06/08 11:53:28;;;;;;;8.73;8.13;;;23.90;99.90;;;;;;4949727;28;20484;-70
2022/06/08 11:56:08;;;;;;;5.23;5.03;;;24.20;99.90;;;;;;4966024;28;20911;-71
2022/06/08 11:58:36;;;;;;;6.70;6.30;;;24.30;99.90;;;;;;4962374;28;20620;-71
2022/06/08 12:01:11;;;;;;;8.67;7.87;;;24.20;99.90;;;;;;4950882;28;20496;-71
2022/06/08 12:03:42;;;;;;;7.30;6.90;;;24.00;99.90;;;;;;4932876;29;20466;-70
2022/06/08 12:06:17;;;;;;;6.60;6.37;;;23.80;99.90;;;;;;4942188;28;20556;-71
2022/06/08 12:08:47;;;;;;;6.40;6.00;;;23.90;99.90;;;;;;4942327;28;20842;-70
2022/06/08 12:11:16;;;;;;;6.60;6.30;;;23.90;99.90;;;;;;4949897;28;20484;-70
2022/06/08 12:13:56;;;;;;;7.37;6.77;;;24.10;99.90;;;;;;4941066;28;20831;-68
2022/06/08 12:16:30;;;;;;;6.60;6.20;;;24.40;99.90;;;;;;4944884;28;20477;-69
2022/06/08 12:19:01;;;;;;;5.53;5.33;;;24.30;99.90;;;;;;4946338;28;20488;-69
2022/06/08 12:21:31;;;;;;;6.37;5.87;;;24.20;99.90;;;;;;4946448;28;21013;-69
2022/06/08 12:24:02;;;;;;;6.50;6.10;;;24.00;99.90;;;;;;4938443;28;20989;-69
2022/06/08 12:26:39;;;;;;;5.53;5.23;;;23.90;99.90;;;;;;4953436;28;20570;-69
2022/06/08 12:29:26;;;;;;;6.03;5.83;;;24.10;99.90;;;;;;4954798;28;20475;-69
2022/06/08 12:32:15;;;;;;;5.83;5.63;;;24.20;99.90;;;;;;4947673;28;20493;-69
2022/06/08 12:34:44;;;;;;;5.23;5.03;;;24.10;99.90;;;;;;4938799;29;20468;-69
2022/06/08 12:37:40;;;;;;;6.13;5.73;;;24.00;99.90;;;;;;4946679;28;20992;-69
2022/06/08 12:40:27;;;;;;;5.80;5.40;;;23.90;99.90;;;;;;4941716;28;20897;-69
2022/06/08 12:42:59;;;;;;;5.37;4.97;;;23.90;99.90;;;;;;4946077;28;20464;-69
2022/06/08 12:45:30;;;;;;;5.70;5.40;;;23.90;99.90;;;;;;4938256;28;20974;-69
2022/06/08 12:47:59;;;;;;;5.73;5.43;;;24.00;99.90;;;;;;4943542;28;20476;-68
2022/06/08 12:50:28;;;;;;;5.53;5.30;;;24.00;99.90;;;;;;4934753;28;20466;-68
2022/06/08 12:52:55;;;;;;;6.40;6.10;;;24.20;99.90;;;;;;4943132;28;20928;-68
2022/06/08 12:55:25;;;;;;;6.10;5.73;;;24.20;99.90;;;;;;4950056;28;20464;-69
2022/06/08 12:57:53;;;;;;;5.30;5.00;;;24.20;99.90;;;;;;4953013;28;20500;-68
2022/06/08 13:00:23;;;;;;;5.30;4.90;;;24.20;99.90;;;;;;4938893;28;20494;-68
2022/06/08 13:02:51;;;;;;;4.90;4.70;;;24.30;99.90;;;;;;4947962;28;20464;-68
2022/06/08 13:05:22;;;;;;;5.10;4.90;;;24.20;99.90;;;;;;4950496;28;20470;-69
2022/06/08 13:07:50;;;;;;;5.40;5.20;;;24.20;99.90;;;;;;4938859;28;21077;-69
2022/06/08 13:10:18;;;;;;;5.40;5.20;;;24.30;99.90;;;;;;4935824;28;20544;-69
2022/06/08 13:12:48;;;;;;;6.13;5.90;;;24.40;99.90;;;;;;4941670;28;20768;-69
2022/06/08 13:15:18;;;;;;;6.10;5.60;;;24.70;99.90;;;;;;4940006;28;20468;-68
2022/06/08 13:17:44;;;;;;;4.50;4.40;;;24.50;99.90;;;;;;4951155;28;20477;-68
2022/06/08 13:20:17;;;;;;;4.60;4.50;;;24.50;99.90;;;;;;4944802;28;20566;-68
2022/06/08 13:22:46;;;;;;;4.60;4.47;;;24.40;99.90;;;;;;4933759;28;20497;-69
2022/06/08 13:25:16;;;;;;;6.43;6.13;;;24.30;99.90;;;;;;4957343;28;20472;-69
2022/06/08 13:27:42;;;;;;;5.23;5.03;;;24.10;99.90;;;;;;4966879;28;20505;-69
2022/06/08 13:30:16;;;;;;;4.37;4.27;;;24.20;99.90;;;;;;4959937;28;21239;-69
2022/06/08 13:32:42;;;;;;;4.30;4.20;;;24.20;99.90;;;;;;4963504;28;20477;-69
2022/06/08 13:35:09;;;;;;;4.87;4.57;;;24.30;99.90;;;;;;4937989;28;20473;-68
2022/06/08 13:37:41;;;;;;;4.30;4.20;;;24.30;99.90;;;;;;4955773;28;20464;-69
2022/06/08 13:40:13;;;;;;;4.53;4.33;;;24.40;99.90;;;;;;4967442;28;20483;-69
2022/06/08 13:42:40;;;;;;;4.10;3.90;;;24.40;99.90;;;;;;4959740;28;20476;-70
2022/06/08 13:45:08;;;;;;;4.50;4.40;;;24.60;99.90;;;;;;4955039;28;20469;-68
2022/06/08 13:47:40;;;;;;;4.80;4.03;;;24.80;99.90;;;;;;4955730;28;20496;-70
2022/06/08 13:50:22;;;;;;;4.17;3.97;;;25.10;99.90;;;;;;4957116;28;20557;-69
2022/06/08 13:52:50;;;;;;;3.93;3.80;;;25.40;99.90;;;;;;4953271;28;20586;-70
2022/06/08 13:55:23;;;;;;;4.53;4.27;;;25.40;99.90;;;;;;4963741;28;20474;-69
2022/06/08 13:57:50;;;;;;;4.17;4.07;;;25.30;99.90;;;;;;4950471;28;20467;-70
2022/06/08 14:00:18;;;;;;;3.50;3.40;;;25.30;99.90;;;;;;4960458;28;20489;-69
2022/06/08 14:02:50;;;;;;;4.40;4.23;;;25.10;99.90;;;;;;4948173;28;20469;-69
2022/06/08 14:12:59;;;;;;;4.70;4.50;;;24.90;99.90;;;;;;4960013;28;20958;-69
2022/06/08 14:14:00;;;;;;;3.83;3.73;;;25.00;99.90;;;;;;4936716;29;20624;-70
2022/06/08 14:16:27;;;;;;;4.20;3.93;;;25.20;99.90;;;;;;4932010;29;20473;-70
2022/06/08 14:18:56;;;;;;;3.50;3.40;;;25.20;99.90;;;;;;4949664;28;20472;-70
2022/06/08 14:21:25;;;;;;;3.93;3.83;;;25.20;99.90;;;;;;4963489;28;20479;-70
2022/06/08 14:23:59;;;;;;;3.80;3.70;;;25.20;99.90;;;;;;4960608;28;20574;-70
2022/06/08 14:26:28;;;;;;;3.97;3.87;;;25.40;99.90;;;;;;4962496;28;20543;-70
2022/06/08 14:28:58;;;;;;;4.03;3.83;;;25.60;99.90;;;;;;4964739;28;20887;-69
2022/06/08 14:31:29;;;;;;;3.30;3.20;;;25.70;99.90;;;;;;4964860;28;21002;-70
2022/06/08 14:33:56;;;;;;;3.33;3.23;;;25.90;99.20;;;;;;4948207;28;20473;-69
2022/06/08 14:36:24;;;;;;;3.63;3.53;;;26.00;98.30;;;;;;4955147;28;20970;-70
2022/06/08 14:38:53;;;;;;;3.27;3.27;;;26.10;98.30;;;;;;4962467;28;20953;-70
2022/06/08 14:41:20;;;;;;;4.23;3.90;;;26.10;98.30;;;;;;4963496;28;21023;-69
2022/06/08 14:43:48;;;;;;;3.67;3.50;;;26.10;98.30;;;;;;4966866;28;20468;-70
2022/06/08 14:46:16;;;;;;;3.13;2.93;;;26.10;98.90;;;;;;4956691;28;20472;-69
2022/06/08 14:48:46;;;;;;;3.40;3.30;;;25.80;98.00;;;;;;4934965;28;20469;-70
2022/06/08 14:51:15;;;;;;;3.03;2.93;;;25.80;98.30;;;;;;4954528;28;20488;-70
2022/06/08 14:53:43;;;;;;;3.53;3.53;;;25.80;97.60;;;;;;4953831;28;20931;-70
2022/06/08 14:56:26;;;;;;;3.23;3.13;;;25.80;98.60;;;;;;4957622;28;20472;-70
2022/06/08 14:58:59;;;;;;;3.50;3.50;;;26.00;97.60;;;;;;4954796;28;20859;-70
2022/06/08 15:01:29;;;;;;;3.63;3.50;;;26.10;97.30;;;;;;4952781;28;20491;-70
2022/06/08 15:03:56;;;;;;;3.27;3.00;;;26.10;97.00;;;;;;4937946;28;20928;-70
2022/06/08 15:06:23;;;;;;;3.10;3.00;;;26.00;96.50;;;;;;4946413;28;20469;-70
2022/06/08 15:08:50;;;;;;;3.60;3.00;;;26.00;97.40;;;;;;4954725;28;20464;-70
2022/06/08 15:14:20;;;;;;;3.43;3.33;;;25.80;97.20;;;;;;4957555;28;20481;-70
2022/06/08 15:16:47;;;;;;;3.00;2.90;;;25.90;98.00;;;;;;4947357;28;20962;-69
2022/06/08 15:19:18;;;;;;;3.13;3.03;;;26.00;95.60;;;;;;4941619;28;20533;-68
2022/06/08 15:21:45;;;;;;;3.37;3.27;;;26.00;96.20;;;;;;4943916;28;20529;-71
2022/06/08 15:24:12;;;;;;;2.90;2.90;;;26.10;96.30;;;;;;4954721;28;20474;-69
2022/06/08 15:26:39;;;;;;;3.13;3.10;;;26.00;95.80;;;;;;4947764;28;20563;-70
2022/06/08 15:29:13;;;;;;;3.67;3.50;;;26.10;96.40;;;;;;4957842;28;20458;-71
2022/06/08 15:31:42;;;;;;;3.60;3.50;;;26.10;96.60;;;;;;4949838;28;20499;-70
2022/06/08 15:34:14;;;;;;;3.50;2.80;;;25.90;96.20;;;;;;4958032;28;20467;-70
2022/06/08 15:36:42;;;;;;;2.70;2.70;;;25.80;96.80;;;;;;4965491;28;20497;-69
2022/06/08 15:39:13;;;;;;;3.07;2.80;;;25.70;96.40;;;;;;4958764;28;20464;-69
2022/06/08 15:41:40;;;;;;;3.10;3.00;;;25.50;96.00;;;;;;4965274;28;20488;-69
2022/06/08 15:44:06;;;;;;;3.70;3.60;;;25.30;96.60;;;;;;4952380;28;20988;-71
2022/06/08 15:46:34;;;;;;;3.13;3.13;;;25.20;96.60;;;;;;4951012;28;20472;-70
2022/06/08 15:49:06;;;;;;;3.30;3.20;;;25.10;96.40;;;;;;4955478;28;20469;-69
2022/06/08 15:51:33;;;;;;;3.03;3.03;;;25.30;96.60;;;;;;4960308;28;20587;-69
2022/06/08 15:54:03;;;;;;;3.27;3.17;;;25.30;96.70;;;;;;4956648;28;20475;-69
2022/06/08 15:56:32;;;;;;;3.40;3.30;;;25.40;96.30;;;;;;4939088;28;20863;-68
2022/06/08 15:59:09;;;;;;;2.87;2.77;;;25.40;96.20;;;;;;4957236;28;20464;-69
2022/06/08 16:01:36;;;;;;;2.77;2.67;;;25.30;96.30;;;;;;4955890;28;20497;-67
2022/06/08 16:04:05;;;;;;;2.73;2.70;;;25.20;95.50;;;;;;4939515;28;20464;-69
2022/06/08 16:06:32;;;;;;;2.73;2.73;;;25.10;95.80;;;;;;4958953;28;20949;-68
2022/06/08 16:08:59;;;;;;;3.20;3.20;;;25.00;96.20;;;;;;4954590;28;20860;-68
2022/06/08 16:11:25;;;;;;;2.57;2.57;;;25.00;95.80;;;;;;4959272;28;20488;-69
2022/06/08 16:13:52;;;;;;;3.37;3.33;;;25.00;96.60;;;;;;4948573;28;20480;-68
2022/06/08 16:19:43;;;;;;;3.10;3.10;;;24.90;96.60;;;;;;4949002;28;20547;-68
2022/06/08 16:22:10;;;;;;;3.20;3.10;;;24.90;97.10;;;;;;4950917;28;20568;-69
2022/06/08 16:24:37;;;;;;;2.67;2.67;;;25.00;97.40;;;;;;4958597;28;20524;-69
2022/06/08 16:27:04;;;;;;;3.00;2.90;;;25.00;97.40;;;;;;4955590;28;20490;-70
2022/06/08 16:29:31;;;;;;;3.30;3.10;;;25.00;97.20;;;;;;4945097;28;20488;-69
2022/06/08 16:31:57;;;;;;;3.33;3.30;;;24.90;97.40;;;;;;4960775;28;20480;-70
2022/06/08 16:34:25;;;;;;;3.20;3.10;;;24.90;97.90;;;;;;4942861;28;20473;-69
2022/06/08 16:36:53;;;;;;;3.13;3.13;;;24.90;98.00;;;;;;4966813;28;20515;-70
2022/06/08 16:39:21;;;;;;;3.40;3.20;;;24.90;98.20;;;;;;4964090;28;20469;-71
2022/06/08 16:42:09;;;;;;;3.17;3.17;;;24.80;97.90;;;;;;4966476;28;20495;-70
2022/06/08 16:44:36;;;;;;;3.87;3.77;;;24.70;97.60;;;;;;4944190;28;20566;-71
2022/06/08 16:47:03;;;;;;;3.53;3.33;;;24.60;98.00;;;;;;4953055;28;20460;-71
2022/06/08 16:49:30;;;;;;;3.13;3.03;;;24.50;98.40;;;;;;4957656;28;20465;-70
2022/06/08 16:51:58;;;;;;;3.80;3.70;;;24.40;97.90;;;;;;4948469;28;20476;-70
2022/06/08 16:54:24;;;;;;;3.00;3.00;;;24.20;98.20;;;;;;4959417;28;20568;-70
2022/06/08 16:59:39;;;;;;;3.53;3.43;;;24.00;98.80;;;;;;4943194;28;20516;-70
2022/06/08 17:02:06;;;;;;;3.03;3.03;;;23.80;99.00;;;;;;4957195;28;20963;-70
2022/06/08 17:04:33;;;;;;;4.10;3.80;;;23.80;99.50;;;;;;4955760;28;20545;-71
2022/06/08 17:07:01;;;;;;;3.70;3.60;;;23.80;99.70;;;;;;4954518;28;20583;-71
2022/06/08 17:09:28;;;;;;;3.30;3.20;;;23.80;99.90;;;;;;4948041;28;20504;-70
2022/06/08 17:11:55;;;;;;;3.47;3.47;;;23.70;99.90;;;;;;4948229;28;20495;-71
2022/06/08 17:14:22;;;;;;;3.43;3.33;;;23.60;99.90;;;;;;4962453;28;20510;-70
2022/06/08 17:16:50;;;;;;;3.13;3.10;;;23.50;99.90;;;;;;4944172;29;20498;-71
2022/06/08 17:19:17;;;;;;;3.63;3.43;;;23.40;99.90;;;;;;4940741;28;20465;-69
2022/06/08 17:21:44;;;;;;;3.70;3.53;;;23.30;99.90;;;;;;4944242;28;20489;-70
2022/06/08 17:24:13;;;;;;;3.43;3.43;;;23.20;99.90;;;;;;4955275;28;20469;-72
2022/06/08 17:26:40;;;;;;;3.47;3.37;;;23.20;99.90;;;;;;4957633;28;20534;-72